Time;durP1;ratioP1;P1;durP2;ratioP2;P2;SDS_P1;SDS_P2;PMS_P1;PMS_P2;Temp;Humidity;BMP_temperature;BMP_pressure;BME280_temperature;BME280_humidity;BME280_pressure;Samples;Min_cycle;Max_cycle;Signal;HPM_P1;HPM_P2
2024/04/01 00:01:12;;;;;;;16.37;5.57;;;12.70;65.30;;;12.36;63.34;95837.06;5041259;28;20493;-77
2024/04/01 00:03:40;;;;;;;13.37;5.43;;;12.80;65.30;;;12.53;62.38;95833.97;5040839;28;21214;-75
2024/04/01 00:06:07;;;;;;;18.00;5.27;;;12.80;64.90;;;12.57;62.50;95835.03;5035363;28;20934;-77
2024/04/01 00:08:34;;;;;;;8.70;4.30;;;12.90;65.00;;;12.53;62.69;95823.16;5034615;28;20532;-76
2024/04/01 00:11:01;;;;;;;10.23;4.33;;;12.90;65.00;;;12.56;62.58;95834.22;5030517;28;20919;-76
2024/04/01 00:13:29;;;;;;;14.73;5.50;;;12.90;65.00;;;12.53;62.29;95823.16;5032525;28;20473;-75
2024/04/01 00:15:55;;;;;;;15.40;4.47;;;12.80;64.90;;;12.45;62.93;95814.50;5039964;28;21049;-78
2024/04/01 00:18:22;;;;;;;12.63;4.30;;;12.80;65.00;;;12.58;62.56;95804.13;5042395;28;20479;-78
2024/04/01 00:20:56;;;;;;;10.00;4.50;;;12.80;65.10;;;12.56;62.28;95800.91;5046290;28;21071;-76
2024/04/01 00:23:24;;;;;;;23.80;5.00;;;12.90;64.80;;;12.49;61.95;95795.00;5028927;28;20496;-74
2024/04/01 00:25:50;;;;;;;11.67;4.20;;;12.80;64.60;;;12.50;61.90;95780.34;5041773;28;20480;-76
2024/04/01 00:28:20;;;;;;;10.87;4.23;;;12.80;64.50;;;12.23;61.98;95746.47;5035984;28;20509;-75
2024/04/01 00:30:46;;;;;;;9.83;3.67;;;12.80;64.30;;;12.46;61.49;95780.13;5037839;28;20471;-76
2024/04/01 00:33:13;;;;;;;9.77;4.33;;;12.80;64.20;;;12.46;60.87;95759.25;5041351;28;21000;-78
2024/04/01 00:35:40;;;;;;;10.97;3.93;;;12.90;64.00;;;12.25;60.84;95760.50;5033798;28;20516;-80
2024/04/01 00:38:08;;;;;;;13.70;3.60;;;12.90;63.60;;;12.18;60.81;95753.50;5027724;28;21020;-80
2024/04/01 00:40:35;;;;;;;13.37;3.77;;;12.90;63.30;;;12.45;60.30;95783.94;5027640;28;20472;-77
2024/04/01 00:43:07;;;;;;;11.13;3.63;;;13.00;63.10;;;12.47;60.32;95781.75;5025864;28;20477;-74
2024/04/01 00:45:38;;;;;;;11.10;4.30;;;13.00;63.20;;;12.40;60.84;95779.34;5036580;28;20562;-75
2024/04/01 00:48:08;;;;;;;15.00;3.70;;;12.90;63.20;;;12.36;60.83;95783.72;5039734;28;21024;-76
2024/04/01 00:50:37;;;;;;;15.87;3.60;;;13.00;63.40;;;12.56;59.75;95776.53;5045351;28;21009;-77
2024/04/01 00:53:06;;;;;;;9.30;3.57;;;13.00;62.70;;;12.56;59.40;95771.91;5045666;28;20919;-76
2024/04/01 00:55:34;;;;;;;6.83;4.13;;;13.00;62.50;;;12.47;59.58;95766.28;5044900;28;20478;-77
2024/04/01 00:58:03;;;;;;;7.80;3.03;;;13.00;62.60;;;12.39;60.09;95760.66;5035617;28;20962;-78
2024/04/01 01:00:30;;;;;;;7.10;2.83;;;13.10;62.70;;;12.64;59.49;95767.78;5041121;28;20954;-74
2024/04/01 01:02:59;;;;;;;19.70;3.60;;;13.00;62.60;;;12.66;58.71;95749.38;5033752;28;20660;-77
2024/04/01 01:05:26;;;;;;;13.40;3.53;;;13.10;62.20;;;12.61;58.57;95761.06;5057975;28;20875;-74
2024/04/01 01:07:57;;;;;;;10.97;3.80;;;13.10;61.80;;;12.71;58.17;95760.16;5050861;28;20479;-78
2024/04/01 01:10:24;;;;;;;9.70;3.40;;;13.20;61.30;;;12.71;57.87;95753.91;5037793;28;20483;-76
2024/04/01 01:12:51;;;;;;;6.13;2.87;;;13.20;61.20;;;12.57;58.02;95742.94;5041061;28;21080;-78
2024/04/01 01:15:18;;;;;;;6.70;3.30;;;13.10;61.20;;;12.69;57.08;95742.56;5044849;28;20541;-77
2024/04/01 01:17:45;;;;;;;10.10;3.27;;;13.10;61.00;;;12.65;56.82;95722.56;5044774;28;20562;-77
2024/04/01 01:20:16;;;;;;;13.00;4.40;;;13.20;60.60;;;12.65;56.86;95738.81;5034214;28;20480;-77
2024/04/01 01:22:45;;;;;;;7.97;3.83;;;13.10;60.60;;;12.58;57.23;95739.13;5032196;28;20534;-81
2024/04/01 01:25:11;;;;;;;8.40;2.53;;;13.10;60.70;;;12.60;57.35;95734.25;5030658;28;20487;-77
2024/04/01 01:27:41;;;;;;;6.90;3.10;;;13.00;60.70;;;12.71;56.77;95727.63;5032794;28;20473;-76
2024/04/01 01:30:15;;;;;;;8.80;2.93;;;13.10;60.40;;;12.76;56.21;95718.66;5028636;28;20822;-77
2024/04/01 01:32:45;;;;;;;7.20;2.50;;;13.10;60.20;;;12.94;55.44;95703.56;5033005;28;20879;-81
2024/04/01 01:35:12;;;;;;;7.23;2.63;;;13.20;59.80;;;12.84;55.32;95695.56;5031202;28;20465;-78
2024/04/01 01:37:40;;;;;;;11.73;2.70;;;13.30;59.70;;;12.27;55.37;95612.94;5033175;28;21082;-75
2024/04/01 01:40:09;;;;;;;7.27;1.83;;;13.30;59.20;;;12.77;54.63;95667.97;5034393;28;20540;-76
2024/04/01 01:42:36;;;;;;;5.00;1.90;;;13.30;58.80;;;12.74;54.31;95659.34;5031938;28;20515;-80
2024/04/01 01:45:04;;;;;;;6.37;2.00;;;13.30;58.50;;;12.86;54.70;95650.00;5035209;28;21049;-75
2024/04/01 01:47:33;;;;;;;9.00;2.60;;;13.40;58.70;;;12.86;55.14;95639.16;5037475;28;20495;-77
2024/04/01 01:49:59;;;;;;;7.63;2.13;;;13.40;58.90;;;12.70;55.02;95620.38;5034948;28;20961;-74
2024/04/01 01:52:27;;;;;;;4.97;1.97;;;13.40;58.70;;;12.73;54.81;95598.13;5032142;28;20481;-77
2024/04/01 01:54:54;;;;;;;7.90;1.93;;;13.40;58.50;;;12.35;54.20;95518.66;5052404;28;20471;-77
2024/04/01 01:57:24;;;;;;;10.23;2.37;;;13.40;58.20;;;12.11;54.83;95509.44;5039256;28;20923;-77
2024/04/01 01:59:50;;;;;;;6.10;2.60;;;13.30;58.20;;;12.54;54.44;95597.25;5033951;28;20536;-77
2024/04/01 02:02:18;;;;;;;6.27;1.97;;;13.30;58.30;;;12.63;54.50;95600.94;5037550;28;20482;-77
2024/04/01 02:04:44;;;;;;;8.87;2.37;;;13.30;58.00;;;12.74;53.58;95588.88;5041159;28;20536;-75
2024/04/01 02:07:11;;;;;;;5.17;2.30;;;13.30;57.60;;;12.85;53.47;95580.66;5038222;28;20479;-76
2024/04/01 02:09:37;;;;;;;6.40;2.00;;;13.40;57.50;;;12.72;53.40;95561.28;5037266;28;20502;-78
2024/04/01 02:12:07;;;;;;;3.30;1.93;;;13.40;57.50;;;12.71;53.96;95565.09;5031911;28;20615;-78
2024/04/01 02:14:35;;;;;;;6.60;2.23;;;13.40;57.50;;;12.82;54.03;95559.56;5029484;28;20538;-77
2024/04/01 02:17:03;;;;;;;7.70;2.77;;;13.40;57.70;;;12.70;54.43;95571.59;5043166;28;21007;-77
2024/04/01 02:19:30;;;;;;;9.20;2.70;;;13.30;57.80;;;12.72;54.34;95555.06;5032371;28;20486;-77
2024/04/01 02:21:57;;;;;;;8.90;2.77;;;13.30;58.10;;;12.56;55.10;95535.47;5025427;28;20487;-75
2024/04/01 02:24:25;;;;;;;6.57;2.83;;;13.20;58.20;;;12.53;55.50;95557.72;5034705;28;20532;-75
2024/04/01 02:26:53;;;;;;;6.40;2.37;;;13.20;58.50;;;12.56;55.97;95571.47;5032742;28;20501;-74
2024/04/01 02:29:20;;;;;;;8.77;2.70;;;13.10;58.70;;;12.47;56.21;95563.19;5029142;28;20995;-77
2024/04/01 02:31:48;;;;;;;5.73;2.47;;;13.00;58.90;;;12.41;56.62;95571.66;5030776;28;20834;-80
2024/04/01 02:34:16;;;;;;;4.67;2.20;;;12.90;59.00;;;12.35;56.58;95573.59;5036568;28;20496;-77
2024/04/01 02:36:43;;;;;;;6.70;2.37;;;12.90;59.10;;;12.29;56.55;95569.34;5055816;28;20463;-77
2024/04/01 02:39:16;;;;;;;5.20;2.53;;;12.90;58.90;;;12.30;56.38;95589.91;5038988;28;20472;-77
2024/04/01 02:41:44;;;;;;;8.40;3.17;;;13.00;58.90;;;11.87;56.38;95517.50;5036247;28;20474;-75
2024/04/01 02:44:10;;;;;;;7.43;2.70;;;12.90;58.90;;;12.31;56.63;95578.81;5028449;28;20556;-75
2024/04/01 02:46:37;;;;;;;11.17;2.43;;;13.00;59.00;;;12.34;56.71;95580.09;5035727;28;20896;-79
2024/04/01 02:49:05;;;;;;;6.60;2.50;;;12.90;59.00;;;12.23;56.85;95584.03;5032722;28;20518;-76
2024/04/01 02:51:32;;;;;;;9.33;2.53;;;12.90;59.00;;;12.18;57.26;95574.06;5030492;28;20472;-79
2024/04/01 02:53:58;;;;;;;8.03;2.63;;;12.90;59.10;;;12.22;57.16;95583.22;5035526;28;20504;-77
2024/04/01 02:56:26;;;;;;;9.50;2.20;;;12.80;59.10;;;12.24;57.04;95588.34;5029506;28;20473;-79
2024/04/01 02:58:52;;;;;;;6.87;2.80;;;12.80;59.20;;;12.38;56.63;95564.09;5033021;28;20846;-77
2024/04/01 03:01:19;;;;;;;8.73;2.87;;;12.80;59.30;;;12.32;56.40;95533.56;5037736;28;20475;-76
2024/04/01 03:03:46;;;;;;;6.63;2.50;;;12.90;59.40;;;12.19;56.54;95491.75;5034006;28;20496;-77
2024/04/01 03:06:14;;;;;;;5.40;2.03;;;12.90;59.10;;;12.33;56.48;95510.81;5033529;28;20487;-76
2024/04/01 03:08:41;;;;;;;10.70;2.77;;;12.90;58.90;;;12.12;56.78;95500.22;5030098;28;20495;-76
2024/04/01 03:11:09;;;;;;;6.17;2.20;;;12.90;58.90;;;12.20;56.97;95487.94;5036156;28;20478;-77
2024/04/01 03:13:36;;;;;;;4.03;2.33;;;12.90;58.90;;;12.17;57.19;95478.50;5052139;28;20493;-76
2024/04/01 03:16:05;;;;;;;7.23;2.80;;;12.80;59.00;;;12.02;57.11;95473.25;5036949;28;20511;-75
2024/04/01 03:18:32;;;;;;;8.10;2.40;;;12.80;58.90;;;11.99;57.45;95485.44;5054010;28;20973;-76
2024/04/01 03:20:59;;;;;;;3.90;2.13;;;12.70;58.90;;;12.02;57.00;95473.25;5038666;28;20475;-76
2024/04/01 03:23:27;;;;;;;9.33;2.30;;;12.70;58.90;;;12.01;57.21;95474.31;5032655;28;20564;-77
2024/04/01 03:25:54;;;;;;;7.93;2.73;;;12.70;58.90;;;11.85;57.09;95479.88;5044408;28;20468;-77
2024/04/01 03:28:20;;;;;;;6.67;2.30;;;12.70;58.80;;;11.85;57.47;95514.25;5036989;28;20469;-74
2024/04/01 03:30:48;;;;;;;4.50;1.80;;;12.60;59.00;;;11.87;57.74;95533.72;5029467;28;20842;-74
2024/04/01 03:33:15;;;;;;;7.77;2.43;;;12.60;59.10;;;11.74;57.97;95533.28;5031174;28;20997;-75
2024/04/01 03:35:43;;;;;;;9.90;2.83;;;12.50;59.10;;;11.65;57.91;95496.31;5040920;28;20955;-77
2024/04/01 03:38:11;;;;;;;10.50;2.30;;;12.30;59.10;;;11.96;57.21;95514.97;5043194;28;20882;-77
2024/04/01 03:40:39;;;;;;;8.57;2.50;;;12.50;59.20;;;11.87;57.85;95504.75;5042058;28;21275;-76
2024/04/01 03:43:07;;;;;;;7.53;2.27;;;12.50;59.30;;;11.88;57.87;95510.97;5040827;28;20484;-74
2024/04/01 03:45:33;;;;;;;11.30;3.07;;;12.50;59.40;;;11.90;58.11;95515.03;5044785;28;20476;-77
2024/04/01 03:48:01;;;;;;;5.37;2.57;;;12.60;59.50;;;11.85;58.17;95509.66;5046034;28;21019;-80
2024/04/01 03:50:29;;;;;;;6.53;2.50;;;12.50;59.50;;;11.83;58.43;95503.72;5043100;28;21016;-76
2024/04/01 03:52:55;;;;;;;7.30;2.60;;;12.50;59.60;;;11.80;58.63;95504.28;5040230;28;21132;-76
2024/04/01 03:55:22;;;;;;;5.80;2.80;;;12.50;59.80;;;11.83;58.66;95500.19;5044132;28;20515;-75
2024/04/01 03:57:50;;;;;;;6.13;2.07;;;12.50;59.80;;;11.74;58.93;95497.31;5052914;28;20815;-76
2024/04/01 04:00:17;;;;;;;11.20;2.70;;;12.40;59.70;;;11.68;59.41;95495.75;5039032;28;20574;-78
2024/04/01 04:02:44;;;;;;;6.13;2.63;;;12.40;59.80;;;11.73;59.08;95501.09;5041460;28;20483;-77
2024/04/01 04:05:11;;;;;;;8.20;2.37;;;12.40;59.90;;;11.66;58.99;95476.28;5040865;28;21037;-77
2024/04/01 04:07:38;;;;;;;4.37;2.67;;;12.40;59.90;;;11.65;59.11;95480.09;5045316;28;20470;-74
2024/04/01 04:10:06;;;;;;;9.10;2.53;;;12.40;60.10;;;11.68;59.63;95495.75;5045294;28;20525;-77
2024/04/01 04:12:33;;;;;;;5.90;2.10;;;12.40;60.10;;;11.64;59.74;95495.50;5044045;28;20468;-76
2024/04/01 04:15:03;;;;;;;8.33;2.37;;;12.30;60.00;;;11.83;58.90;95487.47;5043096;28;21107;-75
2024/04/01 04:17:29;;;;;;;6.53;2.43;;;12.30;60.10;;;11.72;59.17;95485.97;5060389;28;20544;-75
2024/04/01 04:19:56;;;;;;;5.97;2.70;;;12.30;60.20;;;11.72;59.56;95502.19;5039690;28;20479;-75
2024/04/01 04:22:22;;;;;;;6.90;1.90;;;12.20;60.40;;;11.56;59.80;95506.94;5046609;28;20464;-76
2024/04/01 04:24:50;;;;;;;8.40;2.30;;;12.10;60.40;;;11.66;59.79;95503.34;5051206;28;20590;-76
2024/04/01 04:27:16;;;;;;;3.80;1.87;;;12.10;60.60;;;11.84;59.29;95496.41;5046191;28;20475;-75
2024/04/01 04:29:43;;;;;;;11.87;3.80;;;12.20;60.60;;;11.89;59.07;95496.38;5031803;28;21007;-78
2024/04/01 04:32:13;;;;;;;6.70;2.13;;;12.30;60.50;;;11.84;58.90;95507.25;5036760;28;20522;-77
2024/04/01 04:34:40;;;;;;;8.43;2.53;;;12.30;60.10;;;11.60;58.52;95472.81;5034781;28;20469;-78
2024/04/01 04:37:07;;;;;;;6.30;2.27;;;12.30;60.10;;;11.96;58.50;95496.81;5038892;28;20492;-77
2024/04/01 04:39:34;;;;;;;13.13;2.50;;;12.30;60.10;;;11.77;59.21;95467.00;5031233;28;20492;-76
2024/04/01 04:42:01;;;;;;;4.53;2.03;;;12.40;60.30;;;11.75;59.15;95461.03;5041825;28;20966;-77
2024/04/01 04:44:29;;;;;;;7.07;1.70;;;12.30;60.00;;;11.81;58.96;95459.91;5039400;28;20587;-75
2024/04/01 04:46:58;;;;;;;6.83;2.70;;;12.30;60.00;;;11.79;58.29;95459.41;5038388;28;20486;-79
2024/04/01 04:49:28;;;;;;;6.07;2.50;;;12.40;59.80;;;11.83;57.53;95449.63;5033055;28;20832;-75
2024/04/01 04:51:55;;;;;;;5.40;1.80;;;12.40;59.30;;;11.99;57.45;95474.63;5057004;28;20930;-75
2024/04/01 04:54:22;;;;;;;3.23;1.57;;;12.40;59.20;;;11.95;56.89;95462.75;5028931;28;20476;-80
2024/04/01 04:56:48;;;;;;;6.80;2.10;;;12.50;59.10;;;12.07;56.86;95484.03;5037668;28;21064;-76
2024/04/01 04:59:15;;;;;;;5.40;1.63;;;12.50;59.00;;;12.13;56.30;95473.94;5034116;28;20490;-78
2024/04/01 05:01:42;;;;;;;4.17;1.90;;;12.60;58.90;;;12.11;56.55;95471.53;5042369;28;20477;-76
2024/04/01 05:04:11;;;;;;;5.37;1.97;;;12.60;59.00;;;12.16;56.19;95485.00;5037193;28;20515;-76
2024/04/01 05:06:40;;;;;;;4.70;1.80;;;12.60;58.80;;;12.23;56.19;95473.84;5037666;28;21416;-76
2024/04/01 05:09:08;;;;;;;4.80;1.63;;;12.60;58.90;;;12.21;56.16;95462.50;5035512;28;20562;-77
2024/04/01 05:11:35;;;;;;;3.70;1.67;;;12.60;59.00;;;12.05;55.96;95448.31;5042669;28;20478;-76
2024/04/01 05:14:03;;;;;;;5.43;1.80;;;12.50;58.70;;;11.75;56.79;95399.66;5038007;28;20941;-78
2024/04/01 05:16:29;;;;;;;11.13;2.57;;;12.50;58.80;;;12.21;55.62;95445.44;5037653;28;20464;-75
2024/04/01 05:18:56;;;;;;;5.00;2.70;;;12.60;58.40;;;12.24;55.42;95447.59;5038048;28;20490;-75
2024/04/01 05:21:22;;;;;;;5.60;1.70;;;12.60;58.40;;;12.20;56.48;95450.06;5029658;28;20471;-77
2024/04/01 05:23:52;;;;;;;7.63;2.43;;;12.60;58.70;;;12.23;55.64;95435.94;5028655;28;20499;-78
2024/04/01 05:26:19;;;;;;;5.40;1.90;;;12.60;58.50;;;12.28;55.12;95448.63;5037838;28;20978;-76
2024/04/01 05:28:46;;;;;;;7.30;2.07;;;12.70;58.30;;;12.32;55.46;95449.63;5042139;28;21054;-76
2024/04/01 05:31:13;;;;;;;5.80;1.83;;;12.70;58.20;;;12.17;55.15;95416.25;5041099;28;20492;-74
2024/04/01 05:33:40;;;;;;;5.80;2.03;;;12.70;58.20;;;12.34;55.20;95428.50;5032156;28;20569;-79
2024/04/01 05:36:07;;;;;;;5.47;1.57;;;12.70;58.00;;;12.29;55.05;95428.56;5039114;28;20472;-76
2024/04/01 05:38:34;;;;;;;5.00;1.50;;;12.70;57.90;;;12.28;54.89;95414.25;5053571;28;20467;-75
2024/04/01 05:41:02;;;;;;;5.17;1.80;;;12.80;58.10;;;12.34;55.09;95404.13;5031176;28;20471;-75
2024/04/01 05:43:29;;;;;;;7.33;1.97;;;12.80;58.00;;;12.31;55.04;95399.28;5036948;28;20471;-76
2024/04/01 05:45:55;;;;;;;4.33;2.20;;;12.80;58.00;;;12.35;55.23;95418.47;5056515;28;20518;-74
2024/04/01 05:48:23;;;;;;;5.40;2.27;;;12.80;58.10;;;12.12;55.49;95397.38;5028345;28;20562;-75
2024/04/01 05:50:50;;;;;;;6.97;1.70;;;12.70;58.20;;;12.24;55.25;95404.28;5042001;28;20895;-75
2024/04/01 05:53:18;;;;;;;9.03;2.33;;;12.70;58.20;;;12.21;55.24;95391.28;5030963;28;20475;-76
2024/04/01 05:55:45;;;;;;;11.10;2.07;;;12.70;58.20;;;12.21;55.49;95383.19;5028919;28;20472;-77
2024/04/01 05:58:13;;;;;;;5.00;1.90;;;12.70;58.20;;;12.21;55.60;95369.66;5041197;28;20487;-77
2024/04/01 06:00:40;;;;;;;4.20;1.70;;;12.70;58.30;;;12.31;55.68;95373.03;5037434;28;20479;-81
2024/04/01 06:03:08;;;;;;;7.23;2.10;;;12.70;58.40;;;12.30;55.21;95354.38;5036104;28;20637;-77
2024/04/01 06:05:34;;;;;;;4.90;1.77;;;12.70;58.40;;;12.38;55.33;95369.97;5040981;28;20483;-76
2024/04/01 06:08:01;;;;;;;6.33;2.27;;;12.80;58.30;;;12.41;55.51;95377.50;5036779;28;20482;-76
2024/04/01 06:10:27;;;;;;;3.63;2.20;;;12.80;58.40;;;12.40;55.49;95381.31;5029489;28;20925;-74
2024/04/01 06:12:55;;;;;;;4.03;1.80;;;12.80;58.50;;;11.86;55.50;95311.06;5037580;28;20484;-75
2024/04/01 06:15:23;;;;;;;7.77;2.40;;;12.80;58.40;;;12.44;55.32;95397.78;5033303;28;20471;-75
2024/04/01 06:17:52;;;;;;;6.57;2.07;;;12.80;58.30;;;12.55;55.27;95387.63;5051845;28;20475;-75
2024/04/01 06:20:18;;;;;;;7.60;2.47;;;12.80;58.50;;;12.48;54.86;95382.56;5036430;28;20468;-75
2024/04/01 06:22:45;;;;;;;6.93;2.00;;;12.90;58.10;;;12.46;55.32;95396.38;5033619;28;20475;-75
2024/04/01 06:25:12;;;;;;;3.80;1.70;;;13.00;58.20;;;12.41;57.33;95392.94;5034730;28;20902;-70
2024/04/01 06:27:39;;;;;;;7.30;2.37;;;12.90;59.10;;;12.59;56.17;95403.00;5055317;28;20481;-70
2024/04/01 06:30:07;;;;;;;5.93;2.17;;;12.90;58.90;;;12.61;55.77;95399.97;5054274;28;21289;-68
2024/04/01 06:32:35;;;;;;;7.03;2.80;;;13.00;58.80;;;12.79;54.47;95397.56;5027408;28;20534;-71
2024/04/01 06:35:02;;;;;;;7.17;2.90;;;13.10;58.50;;;12.95;54.49;95387.31;5033819;28;20487;-70
2024/04/01 06:37:29;;;;;;;9.60;3.07;;;13.20;58.70;;;13.00;54.57;95381.78;5032529;28;20986;-68
2024/04/01 06:39:56;;;;;;;10.87;2.77;;;13.30;58.40;;;13.05;54.29;95376.31;5041096;28;20525;-70
2024/04/01 06:42:23;;;;;;;8.90;3.37;;;13.30;58.40;;;13.00;54.30;95344.66;5032112;28;20508;-68
2024/04/01 06:44:49;;;;;;;6.33;3.27;;;13.40;58.20;;;13.23;54.34;95358.38;5034886;28;20491;-69
2024/04/01 06:47:17;;;;;;;10.90;3.13;;;13.60;58.50;;;13.35;53.48;95354.38;5052952;28;20570;-71
2024/04/01 06:49:44;;;;;;;10.97;3.10;;;13.60;58.20;;;13.42;53.76;95354.78;5031982;28;20959;-69
2024/04/01 06:52:11;;;;;;;9.17;3.43;;;13.70;58.20;;;13.69;52.61;95355.97;5035500;28;21104;-73
2024/04/01 06:54:38;;;;;;;7.83;2.70;;;13.90;58.10;;;13.88;52.72;95356.69;5040263;28;21028;-73
2024/04/01 06:57:08;;;;;;;6.83;3.40;;;14.10;58.30;;;13.83;52.50;95358.69;5036359;28;21123;-69
2024/04/01 06:59:35;;;;;;;8.40;3.53;;;14.10;57.80;;;13.89;52.84;95362.91;5031476;28;20508;-70
2024/04/01 07:02:02;;;;;;;8.63;3.67;;;14.20;58.20;;;14.12;52.32;95363.78;5030687;28;20482;-70
2024/04/01 07:04:28;;;;;;;8.20;3.73;;;14.30;58.10;;;14.26;52.18;95354.81;5033521;28;20477;-71
2024/04/01 07:06:57;;;;;;;4.83;3.07;;;14.40;57.90;;;14.29;51.57;95370.50;5038158;28;20654;-69
2024/04/01 07:09:23;;;;;;;4.47;3.53;;;14.50;57.90;;;14.38;50.84;95363.25;5041712;28;20530;-69
2024/04/01 07:11:50;;;;;;;7.30;3.13;;;14.60;57.20;;;14.40;50.84;95371.09;5036279;28;20478;-70
2024/04/01 07:14:16;;;;;;;7.07;3.00;;;14.60;57.30;;;14.32;51.08;95394.34;5030891;28;20549;-69
2024/04/01 07:16:44;;;;;;;9.57;3.03;;;14.60;57.10;;;14.37;51.14;95420.59;5035737;28;20489;-69
2024/04/01 07:19:11;;;;;;;11.90;3.97;;;14.70;57.30;;;14.25;51.25;95446.34;5035476;28;20857;-71
2024/04/01 07:21:38;;;;;;;6.57;3.00;;;14.60;57.10;;;14.05;51.53;95480.13;5029624;28;20482;-70
2024/04/01 07:24:06;;;;;;;9.47;3.07;;;14.50;57.20;;;13.78;52.44;95487.13;5036625;28;20500;-70
2024/04/01 07:26:33;;;;;;;7.27;3.00;;;14.40;57.10;;;13.67;52.70;95499.25;5026232;28;20486;-68
2024/04/01 07:28:59;;;;;;;3.63;1.90;;;14.20;57.20;;;13.49;52.49;95501.72;5036817;28;20475;-68
2024/04/01 07:31:26;;;;;;;5.10;2.30;;;14.20;57.10;;;13.54;52.85;95504.31;5041281;28;20898;-69
2024/04/01 07:33:53;;;;;;;5.27;2.57;;;14.10;57.40;;;13.53;53.18;95500.00;5039240;28;20486;-70
2024/04/01 07:36:20;;;;;;;6.97;2.60;;;14.10;57.50;;;13.60;52.99;95500.44;5032522;28;20479;-67
2024/04/01 07:38:46;;;;;;;5.73;2.00;;;14.10;57.70;;;13.73;52.59;95509.72;5041452;28;20484;-79
2024/04/01 07:41:15;;;;;;;7.53;2.33;;;14.10;57.50;;;13.82;53.04;95530.75;5035113;28;20527;-79
2024/04/01 07:43:41;;;;;;;8.53;2.60;;;14.30;57.60;;;13.93;53.08;95542.25;5042158;28;20486;-79
2024/04/01 07:46:09;;;;;;;6.00;2.47;;;14.30;57.80;;;14.07;52.96;95543.09;5046479;28;20553;-80
2024/04/01 07:48:37;;;;;;;6.50;2.90;;;14.40;57.80;;;14.38;53.07;95531.66;5045952;28;20473;-79
2024/04/01 07:51:05;;;;;;;7.10;2.70;;;14.70;58.10;;;14.88;51.41;95543.75;5039254;28;20476;-80
2024/04/01 07:53:32;;;;;;;4.90;2.50;;;15.10;57.80;;;14.72;50.18;95500.59;5044848;28;20485;-79
2024/04/01 07:55:59;;;;;;;6.33;3.00;;;15.50;57.40;;;15.22;49.85;95564.22;5037026;28;20489;-80
2024/04/01 07:58:28;;;;;;;4.50;2.93;;;15.50;57.20;;;15.15;50.29;95563.84;5040004;28;20846;-81
2024/04/01 08:00:57;;;;;;;11.03;3.10;;;15.60;57.20;;;14.80;50.76;95558.06;5043584;28;20481;-78
2024/04/01 08:03:24;;;;;;;4.93;2.60;;;15.40;57.20;;;15.09;50.55;95589.53;5038567;28;20525;-67
2024/04/01 08:05:51;;;;;;;7.50;2.67;;;15.40;57.10;;;14.99;50.69;95604.97;5038911;28;20496;-67
2024/04/01 08:08:17;;;;;;;6.30;2.63;;;15.30;57.20;;;15.09;50.23;95593.06;5034716;28;20943;-65
2024/04/01 08:10:46;;;;;;;7.90;2.53;;;15.40;57.20;;;15.09;49.95;95614.00;5034726;28;21029;-66
2024/04/01 08:13:15;;;;;;;3.97;2.07;;;15.40;56.70;;;15.34;48.61;95592.81;5037375;28;20555;-80
2024/04/01 08:15:47;;;;;;;5.47;2.17;;;15.80;56.40;;;15.09;48.72;95593.06;5044324;28;20995;-79
2024/04/01 08:18:15;;;;;;;5.37;1.80;;;15.80;55.80;;;15.64;47.92;95607.69;5045227;28;20496;-81
2024/04/01 08:20:42;;;;;;;5.00;2.67;;;16.10;56.10;;;15.36;48.76;95634.13;5040098;28;20812;-80
2024/04/01 08:23:08;;;;;;;4.77;2.37;;;16.10;56.00;;;15.43;49.15;95656.28;5044190;28;20480;-81
2024/04/01 08:25:36;;;;;;;7.30;4.20;;;16.10;56.20;;;15.27;51.04;95621.25;5042764;28;20588;-82
2024/04/01 08:28:02;;;;;;;8.87;4.33;;;16.00;57.10;;;15.55;50.60;95610.31;5045745;28;20500;-81
2024/04/01 08:30:29;;;;;;;7.10;3.70;;;16.20;57.40;;;15.65;51.53;95647.38;5040532;28;20472;-81
2024/04/01 08:32:57;;;;;;;12.27;4.80;;;16.30;57.90;;;15.70;52.05;95690.03;5040168;28;20486;-81
2024/04/01 08:35:24;;;;;;;11.07;5.20;;;16.40;58.30;;;14.96;54.26;95672.72;5047601;28;20532;-80
2024/04/01 08:37:50;;;;;;;13.10;5.60;;;16.00;59.00;;;14.46;57.09;95714.88;5039551;28;20556;-79
2024/04/01 08:40:17;;;;;;;11.97;5.30;;;15.40;60.10;;;14.01;59.24;95735.09;5043685;28;20478;-81
2024/04/01 08:42:46;;;;;;;14.57;5.57;;;15.00;61.30;;;13.88;60.94;95746.69;5034704;28;20482;-77
2024/04/01 08:45:14;;;;;;;9.80;4.47;;;14.70;62.40;;;14.11;61.07;95765.94;5042115;28;20493;-81
2024/04/01 08:47:43;;;;;;;9.30;5.27;;;14.70;63.20;;;13.95;62.92;95768.03;5042989;28;20479;-78
2024/04/01 08:50:20;;;;;;;15.63;4.97;;;14.70;64.20;;;13.81;63.93;95757.91;5049787;28;20498;-77
2024/04/01 08:52:53;;;;;;;9.00;3.90;;;14.60;64.80;;;13.92;64.55;95766.72;5049945;28;20566;-78
2024/04/01 08:55:21;;;;;;;11.50;3.73;;;14.60;65.60;;;13.65;65.37;95765.44;5052300;28;21164;-81
2024/04/01 08:57:47;;;;;;;8.37;4.07;;;14.60;65.90;;;13.76;65.93;95808.72;5053040;28;20525;-81
2024/04/01 09:00:15;;;;;;;6.20;3.10;;;14.50;66.30;;;13.58;67.05;95830.09;5057222;28;20487;-72
2024/04/01 09:02:41;;;;;;;10.87;3.60;;;14.40;66.80;;;13.39;67.59;95844.38;5044252;28;20497;-70
2024/04/01 09:05:09;;;;;;;8.10;3.50;;;14.20;67.30;;;13.43;67.87;95874.44;5049556;28;20496;-67
2024/04/01 09:07:37;;;;;;;7.60;2.80;;;14.20;67.90;;;13.21;68.72;95874.91;5043137;28;20989;-68
2024/04/01 09:10:06;;;;;;;5.10;2.80;;;14.00;68.10;;;13.17;69.19;95880.09;5041552;28;20485;-69
2024/04/01 09:12:33;;;;;;;6.10;2.83;;;13.90;68.60;;;12.96;69.85;95901.94;5043163;28;20482;-67
2024/04/01 09:15:01;;;;;;;6.40;2.43;;;13.80;68.80;;;12.79;71.08;95886.06;5041022;28;20601;-67
2024/04/01 09:17:28;;;;;;;4.70;2.20;;;13.70;69.70;;;12.89;71.30;95899.56;5042668;28;20525;-68
2024/04/01 09:20:02;;;;;;;9.30;2.60;;;13.60;70.40;;;12.90;71.54;95930.16;5043120;28;20472;-70
2024/04/01 09:22:28;;;;;;;5.37;2.10;;;13.60;70.70;;;12.75;72.36;95940.00;5037450;28;20484;-71
2024/04/01 09:24:57;;;;;;;3.30;1.93;;;13.60;71.20;;;12.86;72.56;95958.94;5038558;28;20964;-68
2024/04/01 09:27:25;;;;;;;10.97;2.30;;;13.60;71.60;;;12.56;73.26;95974.25;5039607;28;20485;-67
2024/04/01 09:29:53;;;;;;;5.73;1.60;;;13.50;71.60;;;12.53;74.20;95969.41;5040310;28;20483;-68
2024/04/01 09:32:19;;;;;;;3.13;2.07;;;13.30;72.50;;;12.85;75.03;95946.47;5033572;28;21046;-69
2024/04/01 09:34:47;;;;;;;4.77;2.30;;;13.40;74.40;;;13.31;73.56;95939.88;5047625;28;20509;-68
2024/04/01 09:37:14;;;;;;;3.20;1.77;;;13.80;74.50;;;13.56;73.02;95938.88;5039100;28;20491;-67
2024/04/01 09:39:42;;;;;;;5.13;2.37;;;14.20;74.40;;;13.49;73.45;95957.41;5034533;28;20485;-66
2024/04/01 09:42:09;;;;;;;6.47;1.90;;;14.30;74.40;;;13.62;72.52;95944.28;5035248;28;20480;-69
2024/04/01 09:44:37;;;;;;;3.60;2.37;;;14.30;73.80;;;13.58;71.96;95949.47;5034634;28;20488;-69
2024/04/01 09:47:04;;;;;;;3.57;1.93;;;14.30;73.50;;;13.63;70.29;95894.34;5034738;28;20530;-69
2024/04/01 09:49:32;;;;;;;4.37;2.33;;;14.60;73.20;;;14.25;69.35;95956.09;5036113;28;20485;-68
2024/04/01 09:52:00;;;;;;;4.43;2.00;;;14.80;72.80;;;14.54;68.63;95960.66;5032720;28;20472;-68
2024/04/01 09:54:27;;;;;;;3.03;1.70;;;15.10;72.70;;;14.11;69.57;95954.06;5040773;28;20483;-68
2024/04/01 09:57:25;;;;;;;4.13;1.90;;;14.90;72.40;;;13.87;70.22;95967.63;5058384;28;20646;-67
2024/04/01 10:00:15;;;;;;;3.53;1.87;;;14.70;72.40;;;13.30;72.15;95977.06;5041692;28;20555;-68
2024/04/01 10:03:39;;;;;;;2.80;1.67;;;14.30;72.90;;;12.63;75.84;95974.75;5036927;28;20487;-71
2024/04/01 10:07:07;;;;;;;5.00;2.00;;;13.60;74.20;;;12.59;76.57;95962.88;5020074;28;20569;-69
2024/04/01 10:10:21;;;;;;;3.47;1.60;;;13.40;75.60;;;12.42;78.13;95982.97;5032064;28;20516;-66
2024/04/01 10:13:54;;;;;;;2.50;1.37;;;13.20;76.90;;;12.26;76.71;96000.38;5029961;28;20555;-69
2024/04/01 10:17:06;;;;;;;2.83;1.47;;;13.10;76.30;;;12.18;77.57;96018.00;5006226;28;20486;-69
2024/04/01 10:20:07;;;;;;;8.73;1.43;;;13.00;77.00;;;12.35;77.26;96019.56;5037813;28;20478;-68
2024/04/01 10:23:35;;;;;;;2.30;1.30;;;13.00;77.40;;;12.21;78.09;96016.63;5039904;28;20567;-70
2024/04/01 10:26:44;;;;;;;1.33;1.23;;;13.00;77.60;;;12.11;78.92;96012.88;5041572;28;20666;-75